createdAt,value
2022-12-15T00:02:17.764Z,-5.04
2022-12-15T00:05:02.902Z,-4.97
2022-12-15T00:07:48.171Z,-4.85
2022-12-15T00:10:33.327Z,-4.82
2022-12-15T00:13:19.945Z,-5.00
2022-12-15T00:16:05.233Z,-4.94
2022-12-15T00:18:50.463Z,-4.88
2022-12-15T00:21:35.748Z,-4.76
2022-12-15T00:24:21.067Z,-4.76
2022-12-15T00:27:06.378Z,-4.64
2022-12-15T00:29:52.577Z,-4.63
2022-12-15T00:32:37.892Z,-4.51
2022-12-15T00:35:23.689Z,-4.53
2022-12-15T00:38:08.936Z,-4.60
2022-12-15T00:40:36.442Z,-4.53
2022-12-15T00:43:04.196Z,-4.46
2022-12-15T00:45:47.126Z,-4.43
2022-12-15T00:48:14.861Z,-4.34
2022-12-15T00:50:53.049Z,-4.34
2022-12-15T00:53:38.623Z,-4.37
2022-12-15T00:56:23.890Z,-4.35
2022-12-15T00:59:09.180Z,-4.39
2022-12-15T01:01:55.865Z,-4.64
2022-12-15T01:04:41.283Z,-4.62
2022-12-15T01:07:26.719Z,-4.70
2022-12-15T01:10:12.007Z,-4.80
2022-12-15T01:12:57.457Z,-4.72
2022-12-15T01:15:42.850Z,-4.61
2022-12-15T01:18:29.223Z,-4.54
2022-12-15T01:20:57.710Z,-4.42
2022-12-15T01:23:25.318Z,-4.39
2022-12-15T01:25:53.745Z,-4.45
2022-12-15T01:28:22.231Z,-4.46
2022-12-15T01:30:50.062Z,-4.53
2022-12-15T01:33:19.989Z,-4.62
2022-12-15T01:35:56.326Z,-4.82
2022-12-15T01:38:23.982Z,-4.91
2022-12-15T01:40:52.633Z,-4.92
2022-12-15T01:43:23.342Z,-4.78
2022-12-15T01:45:57.099Z,-4.71
2022-12-15T01:48:35.407Z,-4.79
2022-12-15T01:51:11.140Z,-4.89
2022-12-15T01:53:43.467Z,-4.95
2022-12-15T01:56:12.864Z,-5.08
2022-12-15T01:58:44.457Z,-4.97
2022-12-15T02:01:12.441Z,-4.91
2022-12-15T02:03:43.938Z,-4.87
2022-12-15T02:06:13.063Z,-4.71
2022-12-15T02:08:42.655Z,-4.83
2022-12-15T02:11:38.270Z,-4.84
2022-12-15T02:14:08.564Z,-4.89
2022-12-15T02:16:52.687Z,-4.89
2022-12-15T02:19:43.251Z,-5.15
2022-12-15T02:22:24.009Z,-5.25
2022-12-15T02:25:10.853Z,-5.20
2022-12-15T02:27:56.493Z,-5.04
2022-12-15T02:30:42.053Z,-4.96
2022-12-15T02:33:21.047Z,-5.04
2022-12-15T02:35:57.007Z,-5.11
2022-12-15T02:38:32.736Z,-5.06
2022-12-15T02:41:01.165Z,-5.02
2022-12-15T02:43:31.506Z,-5.10
2022-12-15T02:46:16.585Z,-5.22
2022-12-15T02:48:54.628Z,-5.10
2022-12-15T02:51:34.947Z,-4.96
2022-12-15T02:54:16.517Z,-4.86
2022-12-15T02:56:52.434Z,-4.83
2022-12-15T02:59:26.571Z,-4.81
2022-12-15T03:02:00.689Z,-4.90
2022-12-15T03:04:28.983Z,-4.84
2022-12-15T03:07:00.857Z,-4.76
2022-12-15T03:09:28.966Z,-4.79
2022-12-15T03:11:56.442Z,-4.77
2022-12-15T03:14:25.321Z,-4.69
2022-12-15T03:16:53.130Z,-4.67
2022-12-15T03:19:22.163Z,-4.58
2022-12-15T03:21:49.763Z,-4.56
2022-12-15T03:24:17.290Z,-4.56
2022-12-15T03:26:48.481Z,-4.69
2022-12-15T03:29:16.107Z,-4.69
2022-12-15T03:31:44.283Z,-4.69
2022-12-15T03:34:11.844Z,-4.68
2022-12-15T03:36:40.678Z,-4.75
2022-12-15T03:39:08.369Z,-4.74
2022-12-15T03:41:35.969Z,-4.79
2022-12-15T03:44:03.524Z,-4.73
2022-12-15T03:46:31.126Z,-4.69
2022-12-15T03:48:58.755Z,-4.72
2022-12-15T03:51:26.790Z,-4.72
2022-12-15T03:53:55.670Z,-4.73
2022-12-15T03:56:23.190Z,-4.79
2022-12-15T03:58:50.776Z,-4.71
2022-12-15T04:01:27.276Z,-4.68
2022-12-15T04:04:00.222Z,-4.59
2022-12-15T04:06:29.127Z,-4.58
2022-12-15T04:08:58.272Z,-4.69
2022-12-15T04:11:25.807Z,-4.79
2022-12-15T04:13:53.334Z,-4.69
2022-12-15T04:16:21.124Z,-4.57
2022-12-15T04:19:09.782Z,-4.57
2022-12-15T04:21:36.362Z,-4.46
2022-12-15T04:24:23.817Z,-4.53
2022-12-15T04:27:09.177Z,-4.67
2022-12-15T04:29:54.425Z,-4.67
2022-12-15T04:32:39.683Z,-4.77
2022-12-15T04:35:25.577Z,-4.73
2022-12-15T04:38:10.878Z,-4.70
2022-12-15T04:40:57.540Z,-4.71
2022-12-15T04:43:42.847Z,-4.66
2022-12-15T04:46:28.278Z,-4.72
2022-12-15T04:49:13.484Z,-4.74
2022-12-15T04:51:58.947Z,-4.81
2022-12-15T04:54:44.421Z,-4.90
2022-12-15T04:57:31.089Z,-4.96
2022-12-15T05:00:16.435Z,-4.76
2022-12-15T05:03:01.784Z,-4.84
2022-12-15T05:05:47.097Z,-4.85
2022-12-15T05:08:32.582Z,-4.86
2022-12-15T05:11:17.872Z,-4.76
2022-12-15T05:14:04.375Z,-4.74
2022-12-15T05:16:49.527Z,-4.79
2022-12-15T05:19:34.827Z,-4.80
2022-12-15T05:22:20.161Z,-4.73
2022-12-15T05:25:05.441Z,-4.79
2022-12-15T05:27:50.725Z,-4.60
2022-12-15T05:30:37.300Z,-4.51
2022-12-15T05:33:05.079Z,-4.62
2022-12-15T05:35:32.610Z,-4.57
2022-12-15T05:38:00.158Z,-4.54
2022-12-15T05:40:27.760Z,-4.54
2022-12-15T05:42:58.886Z,-4.51
2022-12-15T05:45:28.622Z,-4.51
2022-12-15T05:47:56.781Z,-4.56
2022-12-15T05:50:24.759Z,-4.52
2022-12-15T05:52:52.350Z,-4.52
2022-12-15T05:55:20.852Z,-4.56
2022-12-15T05:57:52.412Z,-4.63
2022-12-15T06:00:21.704Z,-4.59
2022-12-15T06:02:50.662Z,-4.52
2022-12-15T06:05:18.591Z,-4.49
2022-12-15T06:07:46.139Z,-4.59
2022-12-15T06:10:13.818Z,-4.60
2022-12-15T06:12:41.383Z,-4.58
2022-12-15T06:15:09.912Z,-4.54
2022-12-15T06:17:37.495Z,-4.61
2022-12-15T06:20:07.614Z,-4.58
2022-12-15T06:22:35.172Z,-4.64
2022-12-15T06:25:02.859Z,-4.60
2022-12-15T06:27:30.780Z,-4.58
2022-12-15T06:29:58.384Z,-4.58
2022-12-15T06:32:25.988Z,-4.50
2022-12-15T06:34:53.610Z,-4.53
2022-12-15T06:37:22.606Z,-4.58
2022-12-15T06:39:50.134Z,-4.51
2022-12-15T06:42:17.675Z,-4.54
2022-12-15T06:44:45.217Z,-4.48
2022-12-15T06:47:12.823Z,-4.40
2022-12-15T06:49:40.454Z,-4.40
2022-12-15T06:52:09.012Z,-4.34
2022-12-15T06:54:38.586Z,-4.32
2022-12-15T06:57:06.087Z,-4.34
2022-12-15T06:59:33.659Z,-4.38
2022-12-15T07:02:01.478Z,-4.29
2022-12-15T07:04:30.321Z,-4.28
2022-12-15T07:06:58.016Z,-4.35
2022-12-15T07:09:27.462Z,-4.46
2022-12-15T07:11:56.342Z,-4.48
2022-12-15T07:14:24.953Z,-4.51
2022-12-15T07:16:52.568Z,-4.64
2022-12-15T07:19:20.206Z,-4.60
2022-12-15T07:21:47.770Z,-4.61
2022-12-15T07:24:15.335Z,-4.59
2022-12-15T07:26:43.103Z,-4.60
2022-12-15T07:29:14.049Z,-4.46
2022-12-15T07:31:45.996Z,-4.30
2022-12-15T07:34:13.742Z,-4.26
2022-12-15T07:36:42.826Z,-4.16
2022-12-15T07:39:12.200Z,-4.25
2022-12-15T07:41:40.259Z,-4.20
2022-12-15T07:44:08.010Z,-4.48
2022-12-15T07:46:37.015Z,-4.29
2022-12-15T07:49:04.714Z,-4.35
2022-12-15T07:51:32.273Z,-4.42
2022-12-15T07:54:00.028Z,-4.43
2022-12-15T07:56:27.632Z,-4.29
2022-12-15T07:58:55.170Z,-4.24
2022-12-15T08:01:22.883Z,-4.13
2022-12-15T08:03:51.950Z,-4.21
2022-12-15T08:06:19.559Z,-4.10
2022-12-15T08:08:50.010Z,-4.06
2022-12-15T08:11:20.779Z,-3.97
2022-12-15T08:14:09.197Z,-4.06
2022-12-15T08:16:37.430Z,-3.87
2022-12-15T08:19:06.948Z,-3.80
2022-12-15T08:21:34.849Z,-3.71
2022-12-15T08:24:02.617Z,-3.64
2022-12-15T08:26:31.420Z,-3.54
2022-12-15T08:29:31.711Z,-3.51
2022-12-15T08:31:51.375Z,-3.65
2022-12-15T08:34:20.347Z,-3.51
2022-12-15T08:36:47.945Z,-3.53
2022-12-15T08:39:15.751Z,-3.46
2022-12-15T08:41:43.329Z,-3.57
2022-12-15T08:44:11.217Z,-3.44
2022-12-15T08:46:38.827Z,-3.30
2022-12-15T08:49:08.523Z,-3.17
2022-12-15T08:51:37.446Z,-3.17
2022-12-15T08:54:05.043Z,-3.17
2022-12-15T08:56:32.555Z,-3.33
2022-12-15T08:59:01.754Z,-3.23
2022-12-15T09:01:31.925Z,-3.21
2022-12-15T09:04:00.038Z,-3.15
2022-12-15T09:06:30.420Z,-3.03
2022-12-15T09:09:01.412Z,-2.90
2022-12-15T09:11:30.467Z,-2.95
2022-12-15T09:13:58.707Z,-2.69
2022-12-15T09:16:27.599Z,-2.53
2022-12-15T09:18:57.118Z,-2.44
2022-12-15T09:21:27.382Z,-2.42
2022-12-15T09:24:00.007Z,-2.39
2022-12-15T09:26:30.797Z,-2.47
2022-12-15T09:28:58.831Z,-2.62
2022-12-15T09:31:29.707Z,-2.52
2022-12-15T09:33:59.522Z,-2.32
2022-12-15T09:36:28.216Z,-2.20
2022-12-15T09:38:55.779Z,-2.32
2022-12-15T09:41:27.031Z,-2.08
2022-12-15T09:43:59.988Z,-2.01
2022-12-15T09:46:37.096Z,-2.06
2022-12-15T09:49:23.134Z,-2.07
2022-12-15T09:51:55.844Z,-1.82
2022-12-15T09:54:27.736Z,-1.56
2022-12-15T09:56:58.652Z,-1.49
2022-12-15T09:59:37.893Z,-1.39
2022-12-15T10:02:29.198Z,-1.54
2022-12-15T10:05:03.122Z,-1.40
2022-12-15T10:07:37.963Z,-1.57
2022-12-15T10:10:12.225Z,-1.50
2022-12-15T10:12:50.085Z,-1.50
2022-12-15T10:15:26.386Z,-1.37
2022-12-15T10:18:03.453Z,-1.32
2022-12-15T10:20:33.167Z,-1.23
2022-12-15T10:23:13.082Z,-1.15
2022-12-15T10:25:44.239Z,-1.31
2022-12-15T10:28:30.106Z,-1.16
2022-12-15T10:31:02.131Z,-1.12
2022-12-15T10:33:39.681Z,-1.10
2022-12-15T10:36:12.390Z,-1.07
2022-12-15T10:38:42.518Z,-1.17
2022-12-15T10:41:11.961Z,-1.07
2022-12-15T10:43:41.874Z,-1.10
2022-12-15T10:46:18.320Z,-1.08
2022-12-15T10:48:49.163Z,-0.94
2022-12-15T10:51:20.712Z,-1.03
2022-12-15T10:53:53.241Z,-1.09
2022-12-15T10:56:28.742Z,-0.87
2022-12-15T10:59:00.769Z,-0.94
2022-12-15T11:01:32.189Z,-0.97
2022-12-15T11:04:00.293Z,-1.04
2022-12-15T11:06:30.054Z,-1.02
2022-12-15T11:09:08.025Z,-0.89
2022-12-15T11:12:04.032Z,-0.88
2022-12-15T11:14:44.545Z,-0.59
2022-12-15T11:17:18.533Z,-0.51
2022-12-15T11:19:56.672Z,-0.45
2022-12-15T11:22:36.345Z,-0.25
2022-12-15T11:25:13.763Z,-0.15
2022-12-15T11:27:45.864Z,-0.20
2022-12-15T11:30:15.778Z,-0.01
2022-12-15T11:32:48.855Z,-0.01
2022-12-15T11:35:21.503Z,0.02
2022-12-15T11:37:53.794Z,-0.01
2022-12-15T11:40:34.198Z,-0.03
2022-12-15T11:43:12.327Z,0.06
2022-12-15T11:45:49.512Z,0.08
2022-12-15T11:48:22.769Z,0.04
2022-12-15T11:50:56.323Z,0.09
2022-12-15T11:53:46.113Z,0.12
2022-12-15T11:56:27.306Z,0.19
2022-12-15T11:59:10.558Z,0.13
2022-12-15T12:04:51.146Z,0.27
2022-12-15T12:07:25.977Z,0.22
2022-12-15T12:10:06.097Z,0.28
2022-12-15T12:12:41.231Z,0.35
2022-12-15T12:15:24.017Z,0.14
2022-12-15T12:17:54.127Z,0.14
2022-12-15T12:20:27.940Z,0.23
2022-12-15T12:23:03.338Z,0.35
2022-12-15T12:25:34.574Z,0.34
2022-12-15T12:28:06.430Z,0.50
2022-12-15T12:30:42.311Z,0.50
2022-12-15T12:33:16.023Z,0.13
2022-12-15T12:35:48.718Z,0.25
2022-12-15T12:38:21.226Z,0.33
2022-12-15T12:41:02.705Z,0.42
2022-12-15T12:43:36.037Z,0.30
2022-12-15T12:46:11.377Z,0.40
2022-12-15T12:48:42.947Z,0.54
2022-12-15T12:51:23.280Z,0.51
2022-12-15T12:53:51.422Z,0.41
2022-12-15T12:56:31.966Z,0.32
2022-12-15T12:58:59.555Z,0.27
2022-12-15T13:01:31.815Z,0.31
2022-12-15T13:04:08.524Z,0.36
2022-12-15T13:07:03.114Z,0.45
2022-12-15T13:09:42.822Z,0.42
2022-12-15T13:12:53.765Z,0.51
2022-12-15T13:15:37.244Z,0.56
2022-12-15T13:18:09.120Z,0.57
2022-12-15T13:20:37.784Z,0.65
2022-12-15T13:23:37.977Z,0.72
2022-12-15T13:26:15.653Z,0.76
2022-12-15T13:28:49.031Z,0.84
2022-12-15T13:31:33.938Z,0.86
2022-12-15T13:34:15.061Z,0.90
2022-12-15T13:36:56.763Z,0.89
2022-12-15T13:39:56.954Z,0.69
2022-12-15T13:42:37.349Z,0.74
2022-12-15T13:45:46.383Z,0.90
2022-12-15T13:48:33.592Z,0.93
2022-12-15T13:51:06.955Z,0.84
2022-12-15T13:53:41.282Z,0.81
2022-12-15T13:56:25.496Z,0.90
2022-12-15T13:58:58.482Z,0.89
2022-12-15T14:04:16.240Z,0.91
2022-12-15T14:06:50.902Z,0.84
2022-12-15T14:09:24.813Z,0.76
2022-12-15T14:11:54.480Z,0.93
2022-12-15T14:14:26.603Z,0.89
2022-12-15T14:16:58.593Z,0.98
2022-12-15T14:19:27.053Z,0.94
2022-12-15T14:21:56.062Z,1.01
2022-12-15T14:24:42.012Z,0.99
2022-12-15T14:27:11.064Z,0.97
2022-12-15T14:29:38.584Z,0.96
2022-12-15T14:32:06.780Z,1.00
2022-12-15T14:34:41.135Z,1.02
2022-12-15T14:37:15.526Z,1.06
2022-12-15T14:39:45.986Z,1.03
2022-12-15T14:42:23.184Z,1.08
2022-12-15T14:44:54.995Z,1.06
2022-12-15T14:47:28.080Z,1.11
2022-12-15T14:49:58.528Z,1.06
2022-12-15T14:52:29.149Z,1.00
2022-12-15T14:54:59.275Z,0.93
2022-12-15T14:57:38.678Z,0.81
2022-12-15T15:00:24.567Z,0.88
2022-12-15T15:03:04.869Z,0.26
2022-12-15T15:03:19.941Z,0.89
2022-12-15T15:05:50.672Z,0.90
2022-12-15T15:08:26.396Z,0.85
2022-12-15T15:10:55.102Z,0.88
2022-12-15T15:13:28.048Z,0.92
2022-12-15T15:15:57.196Z,0.89
2022-12-15T15:18:28.747Z,0.92
2022-12-15T15:21:02.286Z,0.88
2022-12-15T15:23:30.661Z,0.85
2022-12-15T15:26:08.269Z,0.93
2022-12-15T15:28:39.709Z,0.91
2022-12-15T15:31:33.946Z,0.96
2022-12-15T15:34:06.157Z,0.96
2022-12-15T15:36:36.901Z,0.91
2022-12-15T15:39:10.967Z,0.94
2022-12-15T15:41:38.635Z,0.96
2022-12-15T15:44:14.343Z,0.98
2022-12-15T15:46:47.321Z,0.99
2022-12-15T15:49:18.461Z,0.95
2022-12-15T15:51:46.487Z,0.93
2022-12-15T15:54:15.774Z,0.97
2022-12-15T15:56:43.291Z,0.97
2022-12-15T15:59:13.858Z,0.96
2022-12-15T16:01:41.664Z,0.96
2022-12-15T16:04:09.538Z,0.99
2022-12-15T16:06:39.780Z,0.96
2022-12-15T16:09:15.138Z,1.02
2022-12-15T16:11:42.859Z,1.03
2022-12-15T16:14:14.042Z,0.91
2022-12-15T16:16:42.554Z,0.96
2022-12-15T16:19:11.856Z,0.94
2022-12-15T16:21:40.654Z,1.00
2022-12-15T16:24:11.682Z,1.01
2022-12-15T16:26:39.352Z,0.94
2022-12-15T16:29:14.669Z,0.93
2022-12-15T16:31:45.292Z,0.88
2022-12-15T16:34:13.315Z,0.99
2022-12-15T16:36:41.746Z,0.88
2022-12-15T16:39:25.282Z,0.85
2022-12-15T16:41:54.577Z,0.82
2022-12-15T16:44:24.139Z,0.92
2022-12-15T16:46:52.182Z,0.93
2022-12-15T16:49:19.730Z,0.91
2022-12-15T16:51:51.492Z,0.97
2022-12-15T16:54:23.081Z,0.99
2022-12-15T16:56:51.945Z,0.96
2022-12-15T16:59:33.075Z,0.94
2022-12-15T17:02:03.069Z,0.89
2022-12-15T17:04:30.715Z,0.88
2022-12-15T17:06:58.233Z,0.78
2022-12-15T17:09:26.963Z,0.77
2022-12-15T17:11:54.573Z,0.76
2022-12-15T17:14:22.152Z,0.73
2022-12-15T17:16:50.209Z,0.81
2022-12-15T17:19:21.298Z,0.81
2022-12-15T17:21:51.850Z,0.88
2022-12-15T17:24:22.124Z,0.83
2022-12-15T17:26:50.329Z,0.83
2022-12-15T17:29:21.114Z,0.74
2022-12-15T17:31:48.707Z,0.71
2022-12-15T17:34:26.451Z,0.67
2022-12-15T17:36:54.642Z,0.70
2022-12-15T17:39:23.378Z,0.72
2022-12-15T17:41:59.788Z,0.72
2022-12-15T17:44:38.196Z,0.81
2022-12-15T17:47:08.583Z,0.76
2022-12-15T17:49:39.228Z,0.78
2022-12-15T17:52:19.981Z,0.79
2022-12-15T17:54:47.527Z,0.84
2022-12-15T17:57:15.035Z,0.86
2022-12-15T17:59:42.716Z,0.85
2022-12-15T18:02:13.087Z,0.81
2022-12-15T18:04:42.673Z,0.79
2022-12-15T18:07:16.323Z,0.81
2022-12-15T18:09:43.924Z,0.76
2022-12-15T18:12:18.771Z,0.72
2022-12-15T18:14:46.352Z,0.68
2022-12-15T18:17:13.869Z,0.72
2022-12-15T18:19:42.753Z,0.74
2022-12-15T18:22:13.136Z,0.73
2022-12-15T18:24:40.979Z,0.68
2022-12-15T18:27:20.696Z,0.71
2022-12-15T18:29:48.210Z,0.62
2022-12-15T18:32:16.770Z,0.62
2022-12-15T18:34:46.536Z,0.70
2022-12-15T18:37:17.375Z,0.70
2022-12-15T18:39:45.330Z,0.66
2022-12-15T18:42:15.563Z,0.65
2022-12-15T18:44:46.991Z,0.65
2022-12-15T18:47:17.148Z,0.67
2022-12-15T18:49:46.327Z,0.67
2022-12-15T18:52:18.149Z,0.72
2022-12-15T18:54:47.068Z,0.74
2022-12-15T18:57:28.737Z,0.69
2022-12-15T18:59:58.256Z,0.64
2022-12-15T19:02:25.971Z,0.64
2022-12-15T19:04:54.910Z,0.51
2022-12-15T19:07:22.530Z,0.53
2022-12-15T19:09:50.535Z,0.51
2022-12-15T19:12:18.483Z,0.41
2022-12-15T19:14:47.304Z,0.48
2022-12-15T19:17:34.012Z,0.45
2022-12-15T19:20:21.847Z,0.47
2022-12-15T19:22:49.787Z,0.23
2022-12-15T19:25:25.512Z,0.32
2022-12-15T19:27:58.354Z,0.32
2022-12-15T19:30:27.999Z,0.30
2022-12-15T19:32:55.790Z,0.35
2022-12-15T19:35:25.033Z,0.43
2022-12-15T19:37:54.900Z,0.50
2022-12-15T19:40:25.279Z,0.54
2022-12-15T19:42:53.119Z,0.54
2022-12-15T19:45:25.220Z,0.59
2022-12-15T19:47:53.010Z,0.48
2022-12-15T19:50:26.727Z,0.45
2022-12-15T19:52:57.904Z,0.50
2022-12-15T19:55:29.263Z,0.50
2022-12-15T19:57:56.818Z,0.57
2022-12-15T20:00:24.980Z,0.59
2022-12-15T20:02:54.738Z,0.59
2022-12-15T20:05:25.456Z,0.45
2022-12-15T20:07:54.571Z,0.31
2022-12-15T20:10:31.413Z,0.32
2022-12-15T20:13:00.976Z,0.25
2022-12-15T20:15:29.010Z,0.31
2022-12-15T20:17:57.298Z,0.30
2022-12-15T20:20:28.917Z,0.35
2022-12-15T20:22:59.826Z,0.37
2022-12-15T20:25:30.232Z,0.47
2022-12-15T20:28:00.127Z,0.45
2022-12-15T20:30:29.861Z,0.46
2022-12-15T20:32:57.393Z,0.51
2022-12-15T20:35:26.406Z,0.42
2022-12-15T20:37:53.946Z,0.42
2022-12-15T20:40:24.045Z,0.49
2022-12-15T20:42:52.581Z,0.49
2022-12-15T20:45:22.095Z,0.48
2022-12-15T20:47:51.579Z,0.42
2022-12-15T20:50:37.497Z,0.36
2022-12-15T20:53:06.948Z,0.25
2022-12-15T20:55:34.487Z,0.25
2022-12-15T20:58:02.001Z,0.15
2022-12-15T21:00:29.567Z,0.20
2022-12-15T21:02:57.495Z,0.26
2022-12-15T21:05:27.042Z,0.30
2022-12-15T21:07:54.592Z,0.35
2022-12-15T21:10:22.548Z,0.40
2022-12-15T21:12:51.131Z,0.38
2022-12-15T21:15:21.171Z,0.39
2022-12-15T21:17:57.949Z,0.41
2022-12-15T21:20:40.336Z,0.49
2022-12-15T21:23:18.382Z,0.54
2022-12-15T21:25:46.403Z,0.53
2022-12-15T21:28:14.538Z,0.49
2022-12-15T21:30:42.528Z,0.50
2022-12-15T21:33:10.506Z,0.51
2022-12-15T21:35:40.115Z,0.50
2022-12-15T21:38:08.714Z,0.44
2022-12-15T21:40:36.310Z,0.41
2022-12-15T21:43:05.427Z,0.42
2022-12-15T21:45:32.916Z,0.42
2022-12-15T21:48:18.247Z,0.40
2022-12-15T21:50:48.642Z,0.48
2022-12-15T21:53:17.540Z,0.40
2022-12-15T21:55:47.441Z,0.36
2022-12-15T21:58:19.518Z,0.37
2022-12-15T22:00:47.336Z,0.40
2022-12-15T22:03:14.979Z,0.37
2022-12-15T22:05:42.510Z,0.26
2022-12-15T22:08:15.830Z,0.28
2022-12-15T22:10:45.197Z,0.20
2022-12-15T22:13:17.564Z,0.18
2022-12-15T22:15:45.231Z,0.15
2022-12-15T22:18:19.271Z,0.09
2022-12-15T22:20:49.829Z,0.18
2022-12-15T22:23:20.734Z,0.22
2022-12-15T22:25:51.858Z,0.11
2022-12-15T22:28:22.495Z,0.04
2022-12-15T22:30:52.127Z,0.06
2022-12-15T22:33:24.507Z,-0.04
2022-12-15T22:35:53.783Z,0.03
2022-12-15T22:38:24.706Z,0.00
2022-12-15T22:40:55.450Z,-0.06
2022-12-15T22:43:28.552Z,-0.16
2022-12-15T22:45:57.056Z,-0.28
2022-12-15T22:48:28.029Z,-0.33
2022-12-15T22:50:55.616Z,-0.32
2022-12-15T22:53:27.634Z,-0.31
2022-12-15T22:55:55.221Z,-0.32
2022-12-15T22:58:27.634Z,-0.24
2022-12-15T23:00:58.692Z,-0.28
2022-12-15T23:03:29.733Z,-0.29
2022-12-15T23:05:58.585Z,-0.25
2022-12-15T23:08:27.419Z,-0.37
2022-12-15T23:11:12.724Z,-0.62
2022-12-15T23:13:40.289Z,-0.67
2022-12-15T23:16:19.520Z,-0.73
2022-12-15T23:18:47.618Z,-0.67
2022-12-15T23:21:15.274Z,-0.68
2022-12-15T23:23:44.924Z,-0.59
2022-12-15T23:26:13.039Z,-0.57
2022-12-15T23:28:40.738Z,-0.54
2022-12-15T23:31:09.151Z,-0.58
2022-12-15T23:33:38.862Z,-0.52
2022-12-15T23:36:07.077Z,-0.54
2022-12-15T23:38:34.777Z,-0.54
2022-12-15T23:41:03.690Z,-0.54
2022-12-15T23:43:33.242Z,-0.59
2022-12-15T23:46:02.907Z,-0.58
2022-12-15T23:48:32.256Z,-0.61
2022-12-15T23:51:08.195Z,-0.57
2022-12-15T23:53:36.515Z,-0.71
2022-12-15T23:56:08.081Z,-0.84
2022-12-15T23:58:35.833Z,-0.98
